X  Close Metar Aviation Weather Data     LEGR F.G.L. Airport Granada-Jaén Airport
Temperature
77°F Temperature
59°F Dewpoint
54% Humidity



Wind
1 MPH
2 KM/H
0 M/S
1 KTS



Calm
N
Current Conditions

Clear Clear
Pressure 1021 (hPa) - 30.15 (inHg)
Visibility 6 (mile) - 9.7 (km)
Airport
Airport-code LEGR

Location: F.G.L. Airport Granada-Jaén Airport
Distance: 138 (mi)

Metar:
LEGR 230200Z AUTO VRB01KT CAVOK 25/15 Q1021

Time: 23-07-2024 04:00 CEST